Time;durP1;ratioP1;P1;durP2;ratioP2;P2;SDS_P1;SDS_P2;PMS_P1;PMS_P2;Temp;Humidity;BMP_temperature;BMP_pressure;BME280_temperature;BME280_humidity;BME280_pressure;Samples;Min_cycle;Max_cycle;Signal;HPM_P1;HPM_P2
2024/03/23 00:00:49;;;;;;;0.50;0.40;;;7.00;99.90;;;;;;4957198;28;20242;-82
2024/03/23 00:03:19;;;;;;;0.50;0.40;;;7.00;99.90;;;;;;4956947;28;20206;-82
2024/03/23 00:05:49;;;;;;;0.50;0.40;;;7.00;99.90;;;;;;4955472;29;20199;-82
2024/03/23 00:08:19;;;;;;;0.50;0.40;;;7.00;99.90;;;;;;4955563;29;20590;-82
2024/03/23 00:10:50;;;;;;;0.50;0.40;;;7.00;99.90;;;;;;4956558;28;20221;-82
2024/03/23 00:13:19;;;;;;;0.50;0.40;;;6.90;99.90;;;;;;4956582;28;20582;-82
2024/03/23 00:15:49;;;;;;;0.50;0.40;;;6.90;99.90;;;;;;4956409;28;20615;-83
2024/03/23 00:18:23;;;;;;;0.50;0.40;;;6.90;99.90;;;;;;4956258;28;20222;-83
2024/03/23 00:20:54;;;;;;;0.50;0.40;;;6.90;99.90;;;;;;4956525;28;20190;-83
2024/03/23 00:23:23;;;;;;;0.50;0.40;;;6.90;99.90;;;;;;4956125;28;20744;-83
2024/03/23 00:25:52;;;;;;;0.50;0.40;;;6.90;99.90;;;;;;4956360;28;20222;-82
2024/03/23 00:28:19;;;;;;;0.50;0.40;;;6.90;99.90;;;;;;4956386;28;20714;-82
2024/03/23 00:30:47;;;;;;;0.50;0.40;;;6.90;99.90;;;;;;4956488;28;20633;-82
2024/03/23 00:33:13;;;;;;;0.50;0.50;;;6.90;99.90;;;;;;4955873;28;20202;-83
2024/03/23 00:35:41;;;;;;;0.50;0.40;;;6.80;99.90;;;;;;4956323;28;20245;-83
2024/03/23 00:38:08;;;;;;;0.50;0.40;;;6.80;99.90;;;;;;4956185;28;20226;-83
2024/03/23 00:40:36;;;;;;;0.50;0.40;;;6.80;99.90;;;;;;4955740;28;20801;-83
2024/03/23 00:43:07;;;;;;;0.50;0.40;;;6.80;99.90;;;;;;4956053;28;20206;-84
2024/03/23 00:45:37;;;;;;;0.50;0.40;;;6.80;99.90;;;;;;4960555;28;20249;-84
2024/03/23 00:48:06;;;;;;;0.50;0.40;;;6.90;99.90;;;;;;4960138;28;20308;-84
2024/03/23 00:50:37;;;;;;;0.50;0.40;;;7.00;99.90;;;;;;4960114;28;20274;-83
2024/03/23 00:53:06;;;;;;;3.40;3.20;;;7.00;99.90;;;;;;4960205;28;20203;-84
2024/03/23 00:55:33;;;;;;;0.50;0.40;;;7.00;99.90;;;;;;4960479;28;20199;-83
2024/03/23 00:57:58;;;;;;;0.50;0.40;;;7.00;99.90;;;;;;4960457;28;20233;-83
2024/03/23 01:00:25;;;;;;;0.50;0.40;;;7.00;99.90;;;;;;4960058;28;20570;-83
2024/03/23 01:02:51;;;;;;;0.50;0.40;;;7.00;99.90;;;;;;4959673;28;20206;-84
2024/03/23 01:05:18;;;;;;;0.50;0.40;;;7.00;99.90;;;;;;4958543;28;20199;-82
2024/03/23 01:07:43;;;;;;;0.50;0.50;;;7.00;99.90;;;;;;4958619;28;20222;-83
2024/03/23 01:10:12;;;;;;;0.50;0.50;;;7.00;99.90;;;;;;4958657;28;20197;-83
2024/03/23 01:12:37;;;;;;;0.50;0.50;;;7.00;99.90;;;;;;4958481;28;20209;-84
2024/03/23 01:15:05;;;;;;;0.50;0.40;;;6.90;99.90;;;;;;4958288;28;20194;-84
2024/03/23 01:17:31;;;;;;;0.50;0.40;;;6.80;99.90;;;;;;4958590;28;20413;-82
2024/03/23 01:19:58;;;;;;;0.50;0.40;;;6.70;99.90;;;;;;4957790;28;20198;-83
2024/03/23 01:22:25;;;;;;;0.50;0.40;;;6.70;99.90;;;;;;4958071;28;20716;-83
2024/03/23 01:24:51;;;;;;;0.50;0.40;;;6.60;99.90;;;;;;4957987;28;20197;-83
2024/03/23 01:27:18;;;;;;;0.50;0.40;;;6.50;99.90;;;;;;4958154;28;20223;-84
2024/03/23 01:29:45;;;;;;;0.50;0.40;;;6.50;99.90;;;;;;4957969;28;20198;-82
2024/03/23 01:32:11;;;;;;;0.50;0.40;;;6.50;99.90;;;;;;4957834;28;20222;-84
2024/03/23 01:34:38;;;;;;;0.50;0.40;;;6.50;99.90;;;;;;4956734;29;20220;-82
2024/03/23 01:37:04;;;;;;;0.50;0.40;;;6.50;99.90;;;;;;4958147;28;20442;-84
2024/03/23 01:39:32;;;;;;;0.50;0.40;;;6.40;99.90;;;;;;4957625;28;20198;-83
2024/03/23 01:41:58;;;;;;;0.52;0.52;;;6.30;99.90;;;;;;4957809;28;20209;-83
2024/03/23 01:44:26;;;;;;;0.50;0.40;;;6.30;99.90;;;;;;4957675;28;20662;-82
2024/03/23 01:46:52;;;;;;;0.50;0.45;;;6.20;99.90;;;;;;4957742;28;20445;-83
2024/03/23 01:49:19;;;;;;;0.50;0.40;;;6.20;99.90;;;;;;4955763;29;20253;-81
2024/03/23 01:51:46;;;;;;;0.50;0.40;;;6.10;99.90;;;;;;4957269;28;20229;-82
2024/03/23 01:54:13;;;;;;;0.50;0.40;;;6.00;99.90;;;;;;4956542;28;20277;-81
2024/03/23 01:56:39;;;;;;;0.50;0.50;;;5.90;99.90;;;;;;4956800;28;20199;-82
2024/03/23 01:59:07;;;;;;;0.50;0.40;;;5.90;99.90;;;;;;4957192;28;20218;-83
2024/03/23 02:01:35;;;;;;;0.50;0.40;;;5.90;99.90;;;;;;4957232;28;20199;-82
2024/03/23 02:04:02;;;;;;;0.50;0.40;;;6.00;99.90;;;;;;4957073;28;20209;-82
2024/03/23 02:06:28;;;;;;;0.50;0.40;;;5.90;99.90;;;;;;4957097;28;20199;-82
2024/03/23 02:08:56;;;;;;;0.50;0.40;;;5.90;99.90;;;;;;4957342;28;20290;-83
2024/03/23 02:11:22;;;;;;;0.50;0.40;;;5.90;99.90;;;;;;4955767;28;20222;-83
2024/03/23 02:13:49;;;;;;;0.77;0.77;;;5.90;99.90;;;;;;4956570;28;20214;-83
2024/03/23 02:16:14;;;;;;;4.28;0.88;;;5.80;99.90;;;;;;4956714;28;20446;-82
2024/03/23 02:18:43;;;;;;;0.50;0.40;;;5.80;99.90;;;;;;4956569;28;20221;-83
2024/03/23 02:21:08;;;;;;;0.50;0.40;;;5.80;99.90;;;;;;4957128;28;20201;-82
2024/03/23 02:23:36;;;;;;;0.50;0.40;;;5.90;99.90;;;;;;4956325;28;20190;-83
2024/03/23 02:26:02;;;;;;;0.50;0.40;;;5.90;99.90;;;;;;4956970;28;20198;-83
2024/03/23 02:28:29;;;;;;;0.50;0.50;;;5.90;99.90;;;;;;4955898;28;20221;-83
2024/03/23 02:30:55;;;;;;;1.35;0.73;;;5.90;99.90;;;;;;4956420;28;20237;-82
2024/03/23 02:33:22;;;;;;;0.50;0.40;;;6.00;99.90;;;;;;4956342;28;20198;-82
2024/03/23 02:35:48;;;;;;;0.50;0.40;;;6.00;99.90;;;;;;4955291;28;20669;-82
2024/03/23 02:38:15;;;;;;;0.50;0.40;;;6.00;99.90;;;;;;4956446;28;20210;-82
2024/03/23 02:40:43;;;;;;;0.50;0.40;;;5.90;99.90;;;;;;4956674;28;20197;-81
2024/03/23 02:43:10;;;;;;;0.50;0.40;;;6.00;99.90;;;;;;4956297;28;20666;-83
2024/03/23 02:45:36;;;;;;;0.50;0.40;;;6.00;99.90;;;;;;4956045;28;20204;-82
2024/03/23 02:48:05;;;;;;;0.50;0.40;;;6.00;99.90;;;;;;4956087;28;20237;-83
2024/03/23 02:50:30;;;;;;;0.50;0.40;;;6.10;99.90;;;;;;4959214;28;20446;-83
2024/03/23 02:52:58;;;;;;;0.50;0.40;;;6.10;99.90;;;;;;4959882;28;20343;-82
2024/03/23 02:55:23;;;;;;;0.50;0.40;;;6.10;99.90;;;;;;4960187;28;20202;-82
2024/03/23 02:57:51;;;;;;;0.50;0.40;;;6.10;99.90;;;;;;4959651;28;20221;-83
2024/03/23 03:00:18;;;;;;;0.50;0.40;;;6.10;99.90;;;;;;4959374;28;20559;-81
2024/03/23 03:02:45;;;;;;;0.50;0.40;;;6.10;99.90;;;;;;4959073;28;20194;-82
2024/03/23 03:05:12;;;;;;;0.50;0.40;;;6.10;99.90;;;;;;4959362;28;20209;-82
2024/03/23 03:07:40;;;;;;;0.50;0.40;;;6.20;99.90;;;;;;4959428;28;20261;-83
2024/03/23 03:10:10;;;;;;;0.50;0.40;;;6.10;99.90;;;;;;4959417;28;20630;-82
2024/03/23 03:12:37;;;;;;;0.50;0.40;;;6.10;99.90;;;;;;4959033;28;20309;-82
2024/03/23 03:15:05;;;;;;;0.50;0.50;;;6.10;99.90;;;;;;4958762;28;20202;-82
2024/03/23 03:17:32;;;;;;;0.50;0.40;;;6.00;99.90;;;;;;4958840;28;20824;-83
2024/03/23 03:19:58;;;;;;;0.50;0.50;;;5.90;99.90;;;;;;4958972;28;20201;-82
2024/03/23 03:22:25;;;;;;;0.50;0.40;;;5.90;99.90;;;;;;4959117;28;20194;-81
2024/03/23 03:24:50;;;;;;;0.60;0.60;;;5.90;99.90;;;;;;4958330;28;20206;-82
2024/03/23 03:27:17;;;;;;;0.50;0.40;;;5.90;99.90;;;;;;4958018;28;20221;-80
2024/03/23 03:29:43;;;;;;;0.50;0.40;;;5.90;99.90;;;;;;4958316;28;20202;-82
2024/03/23 03:32:11;;;;;;;0.50;0.40;;;5.80;99.90;;;;;;4958355;28;20224;-82
2024/03/23 03:34:37;;;;;;;0.50;0.40;;;5.90;99.90;;;;;;4958250;28;20640;-82
2024/03/23 03:37:05;;;;;;;0.50;0.40;;;5.90;99.90;;;;;;4958244;28;20222;-83
2024/03/23 03:39:31;;;;;;;0.50;0.45;;;5.90;99.90;;;;;;4958185;28;20453;-82
2024/03/23 03:41:57;;;;;;;0.50;0.40;;;5.90;99.90;;;;;;4957873;28;20543;-82
2024/03/23 03:44:23;;;;;;;0.77;0.75;;;5.90;99.90;;;;;;4957711;28;20199;-82
2024/03/23 03:46:50;;;;;;;5.23;2.00;;;5.90;99.90;;;;;;4957699;28;20209;-82
2024/03/23 03:49:17;;;;;;;1.02;0.93;;;5.90;99.90;;;;;;4958180;28;20209;-81
2024/03/23 03:51:44;;;;;;;13.02;3.65;;;5.90;99.90;;;;;;4958191;28;20222;-83
2024/03/23 03:54:09;;;;;;;1.33;0.80;;;5.90;99.90;;;;;;4957423;28;20205;-81
2024/03/23 03:56:36;;;;;;;0.60;0.60;;;6.00;99.90;;;;;;4957663;28;20190;-82
2024/03/23 03:59:02;;;;;;;0.70;0.70;;;5.90;99.90;;;;;;4957226;28;20218;-82
2024/03/23 04:01:29;;;;;;;2.10;0.80;;;5.80;99.90;;;;;;4956212;28;20567;-82
2024/03/23 04:03:56;;;;;;;8.00;1.40;;;5.80;99.90;;;;;;4957374;28;20448;-81
2024/03/23 04:06:27;;;;;;;46.00;2.15;;;5.70;99.90;;;;;;4956195;29;20753;-81
2024/03/23 04:08:52;;;;;;;0.73;0.73;;;5.70;99.90;;;;;;4957283;28;20218;-82
2024/03/23 04:11:19;;;;;;;0.90;0.90;;;5.70;99.90;;;;;;4956893;28;20214;-81
2024/03/23 04:13:45;;;;;;;0.50;0.40;;;5.80;99.90;;;;;;4956540;28;20221;-82
2024/03/23 04:16:11;;;;;;;0.60;0.60;;;5.80;99.90;;;;;;4957170;28;20190;-82
2024/03/23 04:18:37;;;;;;;0.50;0.43;;;5.80;99.90;;;;;;4956834;28;20742;-81
2024/03/23 04:21:04;;;;;;;1.27;1.27;;;5.90;99.90;;;;;;4956919;28;20198;-82
2024/03/23 04:23:33;;;;;;;0.50;0.40;;;5.70;99.90;;;;;;4956000;28;20194;-81
2024/03/23 04:26:05;;;;;;;0.50;0.40;;;5.70;99.90;;;;;;4956441;28;20198;-82
2024/03/23 04:28:31;;;;;;;1.25;1.15;;;5.70;99.90;;;;;;4956252;28;20219;-82
2024/03/23 04:30:58;;;;;;;1.98;0.88;;;5.60;99.90;;;;;;4956240;28;20309;-82
2024/03/23 04:33:24;;;;;;;0.50;0.40;;;5.60;99.90;;;;;;4955899;28;20209;-81
2024/03/23 04:35:51;;;;;;;0.50;0.47;;;5.60;99.90;;;;;;4956162;28;20198;-82
2024/03/23 04:38:18;;;;;;;0.50;0.50;;;5.50;99.90;;;;;;4955929;28;20225;-82
2024/03/23 04:40:46;;;;;;;0.50;0.50;;;5.60;99.90;;;;;;4955728;28;20605;-82
2024/03/23 04:43:13;;;;;;;0.52;0.50;;;5.60;99.90;;;;;;4955726;28;20675;-82
2024/03/23 04:45:40;;;;;;;0.50;0.40;;;5.60;99.90;;;;;;4956044;28;20285;-83
2024/03/23 04:48:07;;;;;;;0.50;0.50;;;5.50;99.90;;;;;;4955909;28;20215;-82
2024/03/23 04:50:34;;;;;;;0.70;0.70;;;5.50;99.90;;;;;;4959608;28;20574;-82
2024/03/23 04:52:59;;;;;;;1.67;1.58;;;5.50;99.90;;;;;;4962552;28;20236;-83
2024/03/23 04:55:26;;;;;;;4.50;1.40;;;5.50;99.90;;;;;;4963320;28;20206;-82
2024/03/23 04:57:53;;;;;;;1.95;0.93;;;5.50;99.90;;;;;;4962529;28;20222;-83
2024/03/23 05:00:20;;;;;;;9.68;2.75;;;5.60;99.90;;;;;;4959903;28;20199;-84
2024/03/23 05:02:46;;;;;;;1.17;1.15;;;5.60;99.90;;;;;;4959578;28;20201;-83
2024/03/23 05:05:13;;;;;;;0.50;0.50;;;5.50;99.90;;;;;;4959470;28;20202;-83
2024/03/23 05:07:39;;;;;;;0.50;0.50;;;5.60;99.90;;;;;;4959087;28;20246;-83
2024/03/23 05:10:10;;;;;;;0.50;0.40;;;5.60;99.90;;;;;;4959567;28;20198;-84
2024/03/23 05:12:35;;;;;;;1.25;1.15;;;5.60;99.90;;;;;;4959053;28;20477;-83
2024/03/23 05:15:04;;;;;;;0.50;0.40;;;5.60;99.90;;;;;;4959776;28;20271;-83
2024/03/23 05:17:31;;;;;;;0.50;0.40;;;5.60;99.90;;;;;;4960036;28;20740;-83
2024/03/23 05:19:58;;;;;;;3.15;2.58;;;5.70;99.90;;;;;;4959130;28;20194;-83
2024/03/23 05:22:24;;;;;;;1.05;0.95;;;5.70;99.90;;;;;;4958657;28;20601;-82
2024/03/23 05:24:50;;;;;;;0.50;0.40;;;5.70;99.90;;;;;;4960416;28;20195;-82
2024/03/23 05:27:16;;;;;;;1.40;1.40;;;5.70;99.90;;;;;;4960048;28;20245;-81
2024/03/23 05:29:43;;;;;;;0.50;0.40;;;5.70;99.90;;;;;;4959916;28;20198;-83
2024/03/23 05:32:10;;;;;;;0.50;0.50;;;5.70;99.90;;;;;;4959354;28;20214;-82
2024/03/23 05:34:37;;;;;;;2.15;2.05;;;5.70;99.90;;;;;;4958967;28;20198;-83
2024/03/23 05:37:03;;;;;;;1.45;1.20;;;5.70;99.90;;;;;;4959144;28;20201;-82
2024/03/23 05:39:30;;;;;;;0.50;0.40;;;5.70;99.90;;;;;;4959507;28;20199;-81
2024/03/23 05:41:56;;;;;;;0.50;0.40;;;5.70;99.90;;;;;;4958986;28;20590;-82
2024/03/23 05:44:23;;;;;;;1.73;1.23;;;5.80;99.90;;;;;;4959845;28;20195;-82
2024/03/23 05:46:49;;;;;;;0.80;0.80;;;5.70;99.90;;;;;;4959478;28;20574;-82
2024/03/23 05:49:18;;;;;;;0.50;0.40;;;5.80;99.90;;;;;;4959036;28;20196;-83
2024/03/23 05:51:44;;;;;;;1.05;0.60;;;5.80;99.90;;;;;;4958317;28;20474;-83
2024/03/23 05:54:10;;;;;;;7.00;2.10;;;5.80;99.90;;;;;;4958819;28;20241;-82
2024/03/23 05:56:37;;;;;;;4.55;2.97;;;5.80;99.90;;;;;;4959256;28;20225;-83
2024/03/23 05:59:04;;;;;;;0.50;0.50;;;5.80;99.90;;;;;;4959141;28;20265;-82
2024/03/23 06:01:32;;;;;;;0.50;0.50;;;5.90;99.90;;;;;;4958744;28;20220;-82
2024/03/23 06:04:01;;;;;;;5.07;2.38;;;5.90;99.90;;;;;;4957733;28;20278;-81
2024/03/23 06:06:30;;;;;;;0.57;0.55;;;5.90;99.90;;;;;;4959211;28;20206;-82
2024/03/23 06:08:58;;;;;;;0.85;0.85;;;5.90;99.90;;;;;;4958470;28;20222;-83
2024/03/23 06:11:26;;;;;;;0.95;0.85;;;5.90;99.90;;;;;;4958184;28;20240;-82
2024/03/23 06:13:55;;;;;;;4.20;1.10;;;5.90;99.90;;;;;;4956290;28;20202;-81
2024/03/23 06:16:23;;;;;;;3.10;1.42;;;5.80;99.90;;;;;;4958385;28;20206;-82
2024/03/23 06:18:51;;;;;;;1.63;1.63;;;5.80;99.90;;;;;;4958223;28;20219;-82
2024/03/23 06:21:17;;;;;;;0.50;0.50;;;5.70;99.90;;;;;;4958552;28;20206;-83
2024/03/23 06:23:50;;;;;;;1.57;1.47;;;5.70;99.90;;;;;;4957258;28;20198;-82
2024/03/23 06:26:16;;;;;;;1.90;1.80;;;5.70;99.90;;;;;;4958174;28;20222;-81
2024/03/23 06:28:43;;;;;;;5.28;2.78;;;5.60;99.90;;;;;;4957853;28;20225;-82
2024/03/23 06:31:10;;;;;;;1.25;1.25;;;5.60;99.90;;;;;;4958528;28;20205;-83
2024/03/23 06:33:37;;;;;;;1.20;1.10;;;5.60;99.90;;;;;;4958905;28;20198;-83
2024/03/23 06:36:03;;;;;;;4.50;3.58;;;5.80;99.90;;;;;;4960552;28;20203;-83
2024/03/23 06:38:30;;;;;;;2.10;1.48;;;5.90;99.90;;;;;;4959308;28;20210;-83
2024/03/23 06:40:57;;;;;;;4.28;3.03;;;5.90;99.90;;;;;;4959517;28;20202;-83
2024/03/23 06:43:24;;;;;;;0.50;0.50;;;6.00;99.90;;;;;;4960179;28;20261;-83
2024/03/23 06:45:53;;;;;;;6.93;2.75;;;6.10;99.90;;;;;;4960134;28;20674;-83
2024/03/23 06:48:20;;;;;;;4.43;1.63;;;6.20;99.90;;;;;;4960414;28;20723;-83
2024/03/23 06:50:46;;;;;;;2.58;2.35;;;6.30;99.90;;;;;;4960023;28;20201;-83
2024/03/23 06:53:13;;;;;;;5.28;1.90;;;6.50;99.90;;;;;;4960187;28;20221;-83
2024/03/23 06:55:39;;;;;;;3.72;3.53;;;6.60;99.90;;;;;;4960689;28;20198;-83
2024/03/23 06:58:07;;;;;;;0.50;0.40;;;6.80;99.90;;;;;;4961618;28;20234;-83
2024/03/23 07:00:33;;;;;;;5.50;3.30;;;7.10;99.90;;;;;;4963338;28;20207;-82
2024/03/23 07:03:03;;;;;;;0.98;0.98;;;7.30;99.90;;;;;;4963950;28;20195;-83
2024/03/23 07:05:29;;;;;;;1.95;1.20;;;7.60;99.90;;;;;;4961464;28;20203;-82
2024/03/23 07:07:57;;;;;;;1.67;1.57;;;7.90;99.90;;;;;;4959231;28;20219;-82
2024/03/23 07:10:23;;;;;;;1.63;1.48;;;8.10;99.90;;;;;;4957918;28;20446;-82
2024/03/23 07:12:50;;;;;;;1.90;1.80;;;8.50;99.90;;;;;;4957065;28;20220;-84
2024/03/23 07:15:17;;;;;;;12.70;3.63;;;8.50;99.90;;;;;;4958721;28;20662;-83
2024/03/23 07:17:43;;;;;;;0.52;0.50;;;8.60;99.90;;;;;;4958353;28;20223;-84
2024/03/23 07:20:10;;;;;;;3.10;1.08;;;8.60;99.90;;;;;;4959609;28;20206;-82
2024/03/23 07:22:37;;;;;;;0.50;0.40;;;8.50;99.90;;;;;;4958185;28;20201;-82
2024/03/23 07:25:05;;;;;;;9.40;2.72;;;8.40;99.90;;;;;;4958080;28;20209;-82
2024/03/23 07:27:31;;;;;;;1.00;1.00;;;8.40;99.90;;;;;;4958342;28;20278;-83
2024/03/23 07:29:57;;;;;;;0.50;0.40;;;8.50;99.90;;;;;;4957476;28;20713;-83
2024/03/23 07:32:26;;;;;;;1.20;1.10;;;8.70;99.90;;;;;;4957197;28;20222;-82
2024/03/23 07:34:52;;;;;;;0.50;0.40;;;9.20;99.90;;;;;;4957741;28;20207;-82
2024/03/23 07:37:20;;;;;;;3.27;1.50;;;9.70;99.90;;;;;;4960073;28;20709;-82
2024/03/23 07:39:46;;;;;;;1.55;1.45;;;10.00;99.90;;;;;;4961340;28;20446;-82
2024/03/23 07:42:12;;;;;;;1.90;1.67;;;10.40;99.90;;;;;;4960411;28;20197;-83
2024/03/23 07:44:38;;;;;;;2.63;1.42;;;10.80;99.90;;;;;;4960399;28;20610;-82
2024/03/23 07:47:05;;;;;;;0.50;0.50;;;11.10;99.90;;;;;;4960957;28;20257;-82
2024/03/23 07:49:32;;;;;;;1.20;1.10;;;11.10;99.90;;;;;;4960997;28;20199;-82
2024/03/23 07:51:59;;;;;;;4.00;1.57;;;11.20;99.90;;;;;;4959890;28;20473;-83
2024/03/23 07:54:25;;;;;;;0.50;0.40;;;11.40;99.90;;;;;;4958222;28;21100;-82
2024/03/23 07:56:52;;;;;;;1.87;1.73;;;11.90;99.90;;;;;;4959310;28;20437;-82
2024/03/23 07:59:19;;;;;;;2.30;1.23;;;12.40;99.90;;;;;;4958430;28;20438;-83
2024/03/23 08:01:46;;;;;;;0.60;0.60;;;12.10;99.90;;;;;;4958298;28;20442;-82
2024/03/23 08:04:12;;;;;;;2.07;1.53;;;12.00;99.90;;;;;;4958469;28;20442;-82
2024/03/23 08:06:41;;;;;;;1.87;1.67;;;12.20;99.90;;;;;;4958147;28;20448;-82
2024/03/23 08:09:08;;;;;;;1.43;1.33;;;11.50;99.90;;;;;;4957832;28;20731;-83
2024/03/23 08:11:35;;;;;;;3.13;2.30;;;11.30;99.90;;;;;;4957796;28;20449;-82
2024/03/23 08:14:01;;;;;;;1.27;1.13;;;11.60;99.90;;;;;;4960069;28;20470;-83
2024/03/23 08:16:28;;;;;;;2.70;1.37;;;12.00;99.90;;;;;;4959552;28;20525;-82
2024/03/23 08:18:55;;;;;;;1.57;1.00;;;12.10;99.90;;;;;;4959099;28;20465;-83
2024/03/23 08:21:22;;;;;;;3.03;2.50;;;12.10;99.90;;;;;;4957824;28;20438;-82
2024/03/23 08:23:50;;;;;;;2.13;1.23;;;12.30;99.90;;;;;;4957354;28;20426;-82
2024/03/23 08:26:18;;;;;;;1.20;1.10;;;12.70;99.90;;;;;;4957470;28;20442;-82
2024/03/23 08:28:44;;;;;;;0.50;0.40;;;12.20;99.90;;;;;;4957608;28;20977;-82
2024/03/23 08:31:12;;;;;;;6.20;1.43;;;11.70;99.90;;;;;;4957868;28;20484;-82
2024/03/23 08:33:39;;;;;;;3.80;2.63;;;12.00;99.90;;;;;;4957039;28;20225;-82
2024/03/23 08:36:07;;;;;;;1.93;1.10;;;12.80;99.90;;;;;;4956826;28;20493;-81
2024/03/23 08:38:35;;;;;;;2.33;2.00;;;13.10;99.90;;;;;;4956733;28;20464;-82
2024/03/23 08:41:04;;;;;;;7.47;2.50;;;13.00;99.90;;;;;;4957146;28;20896;-82
2024/03/23 08:43:32;;;;;;;0.80;0.70;;;12.40;99.90;;;;;;4956890;28;20441;-83
2024/03/23 08:46:05;;;;;;;1.10;1.00;;;12.20;99.90;;;;;;4956416;28;20476;-81
2024/03/23 08:48:31;;;;;;;0.50;0.50;;;13.00;99.90;;;;;;4955643;28;20473;-82
2024/03/23 08:51:05;;;;;;;0.93;0.83;;;13.10;99.90;;;;;;4955465;28;20438;-82
2024/03/23 08:53:32;;;;;;;0.57;0.50;;;12.20;99.90;;;;;;4956323;28;20481;-82
2024/03/23 08:56:00;;;;;;;1.70;1.60;;;11.40;99.90;;;;;;4956162;28;20442;-82
2024/03/23 08:58:30;;;;;;;2.70;2.50;;;10.60;99.90;;;;;;4955695;28;20465;-82
2024/03/23 09:01:03;;;;;;;0.70;0.52;;;9.90;99.90;;;;;;4955744;28;20537;-82
2024/03/23 09:03:30;;;;;;;1.43;1.20;;;9.50;99.90;;;;;;4955577;28;20194;-82
2024/03/23 09:05:58;;;;;;;5.75;0.95;;;9.30;99.90;;;;;;4958751;28;20465;-82
2024/03/23 09:08:24;;;;;;;0.90;0.90;;;9.20;99.90;;;;;;4956660;28;20230;-81
2024/03/23 09:10:50;;;;;;;0.60;0.60;;;9.00;99.90;;;;;;4957110;28;20202;-82
2024/03/23 09:13:16;;;;;;;0.80;0.57;;;9.00;99.90;;;;;;4956022;28;20493;-82
2024/03/23 09:15:49;;;;;;;2.07;1.23;;;9.40;99.90;;;;;;4956685;28;20437;-81
2024/03/23 09:18:15;;;;;;;0.80;0.80;;;10.00;99.90;;;;;;4955884;28;20606;-81
2024/03/23 09:20:42;;;;;;;0.90;0.70;;;10.50;99.90;;;;;;4955955;28;20449;-83
2024/03/23 09:23:09;;;;;;;1.27;0.77;;;11.40;99.90;;;;;;4955826;28;20438;-82
2024/03/23 09:25:38;;;;;;;0.90;0.77;;;12.50;99.90;;;;;;4955866;28;20967;-82
2024/03/23 09:28:05;;;;;;;2.00;0.93;;;13.10;99.90;;;;;;4955425;28;20466;-82
2024/03/23 09:30:32;;;;;;;0.50;0.40;;;13.80;99.90;;;;;;4955309;28;20820;-83
2024/03/23 09:33:00;;;;;;;21.13;1.43;;;14.40;99.90;;;;;;4955148;28;20607;-83
2024/03/23 09:35:27;;;;;;;0.53;0.47;;;14.80;99.90;;;;;;4955426;28;20467;-82
2024/03/23 09:37:53;;;;;;;0.77;0.70;;;14.80;99.90;;;;;;4959588;28;21008;-84
2024/03/23 09:40:21;;;;;;;1.97;1.70;;;15.20;99.90;;;;;;4961972;28;20439;-83
2024/03/23 09:42:50;;;;;;;2.40;2.20;;;14.70;99.90;;;;;;4962698;28;20438;-84
2024/03/23 09:45:21;;;;;;;2.30;1.20;;;14.30;99.90;;;;;;4963514;28;20446;-83
2024/03/23 09:47:47;;;;;;;0.60;0.50;;;14.00;99.90;;;;;;4962161;29;20975;-83
2024/03/23 09:50:16;;;;;;;1.30;1.13;;;13.60;99.90;;;;;;4962443;28;20454;-83
2024/03/23 09:52:42;;;;;;;1.27;1.27;;;12.60;99.90;;;;;;4959779;28;20466;-83
2024/03/23 09:55:10;;;;;;;2.83;1.30;;;12.30;99.90;;;;;;4959913;28;20446;-83
2024/03/23 09:57:35;;;;;;;1.20;0.80;;;12.60;99.90;;;;;;4960358;28;20322;-84
2024/03/23 10:00:02;;;;;;;13.07;2.07;;;12.70;99.90;;;;;;4959849;28;20446;-83
2024/03/23 10:02:31;;;;;;;0.73;0.73;;;12.50;99.90;;;;;;4960421;28;20586;-83
2024/03/23 10:04:57;;;;;;;1.43;1.30;;;12.50;99.90;;;;;;4960994;28;20445;-83
2024/03/23 10:07:28;;;;;;;1.07;0.80;;;13.40;99.90;;;;;;4960330;28;20970;-83
2024/03/23 10:09:54;;;;;;;9.60;1.27;;;13.80;99.90;;;;;;4960887;28;20446;-84
2024/03/23 10:12:21;;;;;;;0.50;0.40;;;13.50;99.90;;;;;;4960526;28;20481;-83
2024/03/23 10:14:48;;;;;;;0.50;0.40;;;13.60;99.90;;;;;;4960013;28;20477;-83
2024/03/23 10:17:17;;;;;;;0.77;0.77;;;13.70;99.90;;;;;;4959925;28;20461;-84
2024/03/23 10:19:45;;;;;;;0.90;0.90;;;14.40;99.90;;;;;;4960951;28;20668;-83
2024/03/23 10:22:14;;;;;;;0.50;0.50;;;13.80;99.90;;;;;;4960398;28;20438;-83
2024/03/23 10:24:43;;;;;;;6.20;0.50;;;14.20;99.90;;;;;;4961169;28;20443;-83
2024/03/23 10:27:09;;;;;;;0.50;0.40;;;15.40;99.10;;;;;;4961485;28;20444;-84
2024/03/23 10:29:35;;;;;;;1.57;0.60;;;16.00;93.50;;;;;;4961913;28;20466;-83
2024/03/23 10:32:09;;;;;;;1.33;1.23;;;16.20;92.70;;;;;;4961011;28;20210;-83
2024/03/23 10:34:39;;;;;;;0.50;0.40;;;14.80;90.50;;;;;;4961372;28;20442;-83
2024/03/23 10:37:06;;;;;;;11.27;1.17;;;13.30;93.70;;;;;;4962170;28;20443;-84
2024/03/23 10:39:35;;;;;;;0.93;0.50;;;12.80;96.60;;;;;;4961527;28;20517;-84
2024/03/23 10:42:03;;;;;;;2.53;0.90;;;12.50;98.40;;;;;;4962294;28;20497;-83
2024/03/23 10:44:31;;;;;;;10.97;2.10;;;12.20;99.90;;;;;;4961353;29;20443;-83
2024/03/23 10:47:01;;;;;;;1.70;1.07;;;11.40;99.90;;;;;;4960983;28;20469;-83
2024/03/23 10:49:30;;;;;;;1.00;0.90;;;9.90;99.90;;;;;;4960822;28;20441;-83
2024/03/23 10:51:58;;;;;;;0.88;0.70;;;8.30;99.90;;;;;;4963015;29;20449;-83
2024/03/23 10:54:27;;;;;;;0.82;0.82;;;7.50;99.90;;;;;;4963363;28;20594;-83
2024/03/23 10:57:04;;;;;;;0.73;0.73;;;6.90;99.90;;;;;;4963190;28;20406;-82
2024/03/23 10:59:32;;;;;;;0.98;0.70;;;6.50;99.90;;;;;;4964654;28;20206;-83
2024/03/23 11:01:59;;;;;;;0.50;0.50;;;6.30;99.90;;;;;;4963504;28;20290;-83
2024/03/23 11:04:33;;;;;;;0.50;0.50;;;6.10;99.90;;;;;;4964245;28;20205;-84
2024/03/23 11:06:59;;;;;;;1.23;0.73;;;6.00;99.90;;;;;;4962534;28;20194;-83
2024/03/23 11:09:45;;;;;;;1.70;1.30;;;6.10;99.90;;;;;;4963773;28;20257;-82
2024/03/23 11:12:33;;;;;;;0.75;0.73;;;6.40;99.90;;;;;;4950967;29;20210;-82
2024/03/23 11:15:02;;;;;;;0.50;0.50;;;7.40;99.90;;;;;;4968430;28;20281;-82
2024/03/23 11:17:29;;;;;;;1.13;0.70;;;8.40;99.90;;;;;;4968852;28;20222;-83
2024/03/23 11:19:58;;;;;;;0.50;0.50;;;9.40;99.90;;;;;;4966131;28;20199;-83
2024/03/23 11:22:43;;;;;;;0.80;0.60;;;10.30;99.90;;;;;;4966419;29;20198;-83
2024/03/23 11:25:13;;;;;;;0.60;0.60;;;11.50;99.90;;;;;;4966648;28;20462;-83
2024/03/23 11:27:41;;;;;;;0.50;0.40;;;11.40;99.90;;;;;;4967394;28;20481;-82
2024/03/23 11:30:12;;;;;;;0.60;0.50;;;11.60;99.90;;;;;;4968196;28;20444;-82
2024/03/23 11:32:39;;;;;;;0.90;0.70;;;12.30;99.90;;;;;;4967805;28;21043;-82
2024/03/23 11:35:06;;;;;;;0.63;0.50;;;12.60;99.90;;;;;;4967892;28;20446;-83
2024/03/23 11:37:33;;;;;;;2.30;0.93;;;13.30;99.90;;;;;;4968331;28;20517;-83
2024/03/23 11:40:00;;;;;;;2.60;1.17;;;14.00;99.90;;;;;;4967925;28;20438;-84
2024/03/23 11:42:26;;;;;;;0.63;0.63;;;13.90;99.90;;;;;;4966105;29;21001;-83
2024/03/23 11:44:53;;;;;;;0.90;0.90;;;13.80;99.90;;;;;;4967664;28;20468;-83
2024/03/23 11:47:21;;;;;;;1.50;0.60;;;14.10;99.90;;;;;;4967248;28;20462;-83
2024/03/23 11:49:49;;;;;;;3.50;1.73;;;14.60;99.90;;;;;;4968036;28;20449;-82
2024/03/23 11:52:17;;;;;;;0.50;0.40;;;15.20;99.90;;;;;;4969675;28;20462;-82
2024/03/23 11:54:43;;;;;;;1.30;0.80;;;15.70;99.90;;;;;;4969542;28;20474;-82
2024/03/23 11:57:10;;;;;;;5.07;0.63;;;15.20;99.90;;;;;;4963664;28;20441;-82
2024/03/23 11:59:37;;;;;;;1.70;1.43;;;14.90;99.90;;;;;;4960141;28;20805;-84
2024/03/23 12:02:10;;;;;;;0.80;0.70;;;14.60;98.80;;;;;;4963259;28;20435;-82
2024/03/23 12:04:36;;;;;;;2.30;1.00;;;13.40;99.90;;;;;;4959916;28;20442;-82
2024/03/23 12:07:13;;;;;;;0.80;0.80;;;12.60;99.90;;;;;;4959409;28;20434;-81
2024/03/23 12:09:40;;;;;;;0.80;0.80;;;11.60;99.90;;;;;;4959233;28;20445;-81
2024/03/23 12:12:11;;;;;;;1.00;0.50;;;11.40;99.90;;;;;;4959021;28;20481;-80
2024/03/23 12:14:38;;;;;;;0.70;0.60;;;10.80;99.90;;;;;;4958865;28;20426;-82
2024/03/23 12:17:24;;;;;;;2.87;1.70;;;10.20;99.90;;;;;;4958692;28;20453;-80
2024/03/23 12:19:51;;;;;;;0.60;0.53;;;9.80;99.90;;;;;;4960331;28;20434;-81
2024/03/23 12:22:22;;;;;;;1.03;0.93;;;9.70;99.90;;;;;;4957830;28;20437;-82
2024/03/23 12:24:48;;;;;;;0.60;0.50;;;9.60;99.90;;;;;;4960887;28;20442;-82
2024/03/23 12:27:15;;;;;;;3.17;1.57;;;10.10;99.90;;;;;;4960681;28;20522;-81
2024/03/23 12:29:43;;;;;;;0.93;0.80;;;11.10;99.90;;;;;;4961060;28;20942;-81
2024/03/23 12:32:10;;;;;;;0.50;0.40;;;11.50;99.90;;;;;;4958655;28;20442;-81
2024/03/23 12:34:38;;;;;;;0.60;0.60;;;11.30;99.90;;;;;;4958880;28;20478;-81
2024/03/23 12:37:05;;;;;;;1.43;0.67;;;11.40;99.90;;;;;;4958286;28;20919;-81
2024/03/23 12:39:31;;;;;;;17.93;1.20;;;12.00;99.90;;;;;;4957526;28;20466;-81
2024/03/23 12:41:58;;;;;;;0.80;0.60;;;11.60;99.90;;;;;;4958413;28;20442;-83
2024/03/23 12:44:24;;;;;;;1.00;0.70;;;10.70;99.90;;;;;;4958492;28;20198;-81
2024/03/23 12:46:51;;;;;;;5.50;2.40;;;10.10;99.90;;;;;;4957544;28;20438;-80
2024/03/23 12:49:16;;;;;;;8.43;3.80;;;9.70;99.90;;;;;;4957489;28;20221;-81
2024/03/23 12:51:54;;;;;;;2.90;0.80;;;9.70;99.90;;;;;;4957568;28;20442;-80
2024/03/23 12:54:21;;;;;;;1.03;0.93;;;10.30;99.90;;;;;;4956767;28;20214;-81